Time,TemperatureF,DewpointF,PressureIn,WindDirection,WindDirectionDegrees,WindSpeedMPH,WindSpeedGustMPH,Humidity,HourlyPrecipIn,Conditions,Clouds,dailyrainin,SolarRadiationWatts/m^2,SoftwareType,DateUTC
2013-10-29 00:04:00,66.1,63.1,30.16,West,279,0.0,1.0,90,0.00,,,0.00,0,Wunderground v.1.15,2013-10-29 05:04:00,
2013-10-29 00:10:00,66.0,63.0,30.16,West,279,0.0,1.0,90,0.00,,,0.00,0,Wunderground v.1.15,2013-10-29 05:10:00,
2013-10-29 00:15:00,65.8,62.8,30.16,West,279,0.0,1.0,90,0.00,,,0.00,0,Wunderground v.1.15,2013-10-29 05:15:00,
2013-10-29 00:20:00,65.7,63.0,30.15,West,279,0.0,1.0,91,0.00,,,0.00,0,Wunderground v.1.15,2013-10-29 05:20:00,
2013-10-29 00:33:00,65.3,62.9,30.15,West,279,0.0,1.0,92,0.00,,,0.00,0,Wunderground v.1.15,2013-10-29 05:33:00,
2013-10-29 00:38:00,65.2,62.8,30.15,West,279,0.0,1.0,92,0.00,,,0.00,0,Wunderground v.1.15,2013-10-29 05:38:00,
2013-10-29 00:43:00,65.0,62.6,30.15,West,279,0.0,1.0,92,0.00,,,0.00,0,Wunderground v.1.15,2013-10-29 05:43:00,
2013-10-29 00:49:00,64.9,62.5,30.15,West,279,0.0,1.0,92,0.00,,,0.00,0,Wunderground v.1.15,2013-10-29 05:49:00,
2013-10-29 00:54:00,64.8,62.4,30.15,West,279,0.0,1.0,92,0.00,,,0.00,0,Wunderground v.1.15,2013-10-29 05:54:00,
2013-10-29 00:59:00,64.6,62.5,30.15,West,279,0.0,1.0,93,0.00,,,0.00,0,Wunderground v.1.15,2013-10-29 05:59:00,
2013-10-29 01:14:00,64.0,61.9,30.15,West,279,0.0,0.0,93,0.00,,,0.00,0,Wunderground v.1.15,2013-10-29 06:14:00,
2013-10-29 01:19:00,63.9,61.8,30.15,West,279,0.0,0.0,93,0.00,,,0.00,0,Wunderground v.1.15,2013-10-29 06:19:00,
2013-10-29 01:24:00,63.7,61.9,30.15,West,279,0.0,0.0,94,0.00,,,0.00,0,Wunderground v.1.15,2013-10-29 06:24:00,
2013-10-29 01:30:00,63.6,61.8,30.15,West,279,0.0,1.0,94,0.00,,,0.00,0,Wunderground v.1.15,2013-10-29 06:30:00,
2013-10-29 01:35:00,63.5,62.0,30.15,West,279,0.0,0.0,95,0.00,,,0.00,0,Wunderground v.1.15,2013-10-29 06:35:00,
2013-10-29 01:40:00,63.4,61.9,30.15,West,279,0.0,0.0,95,0.00,,,0.00,0,Wunderground v.1.15,2013-10-29 06:40:00,
2013-10-29 01:45:00,63.3,61.8,30.15,West,279,0.0,0.0,95,0.00,,,0.00,0,Wunderground v.1.15,2013-10-29 06:45:00,
2013-10-29 01:50:00,63.3,61.8,30.15,West,279,0.0,0.0,95,0.00,,,0.00,0,Wunderground v.1.15,2013-10-29 06:50:00,
2013-10-29 01:55:00,63.3,61.8,30.15,West,279,0.0,0.0,95,0.00,,,0.00,0,Wunderground v.1.15,2013-10-29 06:55:00,
2013-10-29 02:05:00,63.1,61.6,30.15,West,279,0.0,0.0,95,0.00,,,0.00,0,Wunderground v.1.15,2013-10-29 07:05:00,
2013-10-29 02:10:00,63.1,61.6,30.15,West,279,0.0,0.0,95,0.00,,,0.00,0,Wunderground v.1.15,2013-10-29 07:10:00,
2013-10-29 02:15:00,63.0,61.5,30.15,West,279,0.0,0.0,95,0.00,,,0.00,0,Wunderground v.1.15,2013-10-29 07:15:00,
2013-10-29 02:20:00,62.8,61.3,30.15,West,279,0.0,0.0,95,0.00,,,0.00,0,Wunderground v.1.15,2013-10-29 07:20:00,
2013-10-29 02:25:00,62.8,61.6,30.15,West,279,0.0,0.0,96,0.00,,,0.00,0,Wunderground v.1.15,2013-10-29 07:25:00,
2013-10-29 02:31:00,62.7,61.5,30.15,West,279,0.0,0.0,96,0.00,,,0.00,0,Wunderground v.1.15,2013-10-29 07:31:00,
2013-10-29 02:36:00,62.7,61.5,30.15,West,279,0.0,0.0,96,0.00,,,0.00,0,Wunderground v.1.15,2013-10-29 07:36:00,
2013-10-29 02:41:00,62.6,61.4,30.15,West,279,0.0,0.0,96,0.00,,,0.00,0,Wunderground v.1.15,2013-10-29 07:41:00,
2013-10-29 02:46:00,62.6,61.4,30.15,West,279,0.0,0.0,96,0.00,,,0.00,0,Wunderground v.1.15,2013-10-29 07:46:00,
2013-10-29 02:52:00,62.5,61.3,30.15,West,279,0.0,0.0,96,0.00,,,0.00,0,Wunderground v.1.15,2013-10-29 07:52:00,
2013-10-29 02:57:00,62.4,61.2,30.15,West,279,0.0,0.0,96,0.00,,,0.00,0,Wunderground v.1.15,2013-10-29 07:57:00,
2013-10-29 03:02:00,62.3,61.1,30.15,West,279,0.0,0.0,96,0.00,,,0.00,0,Wunderground v.1.15,2013-10-29 08:02:00,
2013-10-29 03:37:00,61.8,60.9,30.15,West,279,0.0,0.0,97,0.00,,,0.00,0,Wunderground v.1.15,2013-10-29 08:37:00,
2013-10-29 03:42:00,61.8,60.9,30.15,West,279,0.0,0.0,97,0.00,,,0.00,0,Wunderground v.1.15,2013-10-29 08:42:00,
2013-10-29 03:47:00,61.8,60.9,30.15,West,279,0.0,0.0,97,0.00,,,0.00,0,Wunderground v.1.15,2013-10-29 08:47:00,
2013-10-29 03:58:00,61.6,60.7,30.15,West,279,0.0,0.0,97,0.00,,,0.00,0,Wunderground v.1.15,2013-10-29 08:58:00,
2013-10-29 04:03:00,61.5,60.6,30.15,West,279,0.0,0.0,97,0.00,,,0.00,0,Wunderground v.1.15,2013-10-29 09:03:00,
2013-10-29 04:08:00,61.4,60.5,30.15,West,279,0.0,0.0,97,0.00,,,0.00,0,Wunderground v.1.15,2013-10-29 09:08:00,
2013-10-29 04:13:00,61.4,60.5,30.15,West,279,0.0,0.0,97,0.00,,,0.00,0,Wunderground v.1.15,2013-10-29 09:13:00,
2013-10-29 04:18:00,61.3,60.4,30.15,West,279,0.0,0.0,97,0.00,,,0.00,0,Wunderground v.1.15,2013-10-29 09:18:00,
2013-10-29 04:29:00,61.3,60.4,30.15,West,279,0.0,0.0,97,0.00,,,0.00,0,Wunderground v.1.15,2013-10-29 09:29:00,
2013-10-29 04:34:00,61.4,60.5,30.15,West,279,0.0,0.0,97,0.00,,,0.00,0,Wunderground v.1.15,2013-10-29 09:34:00,
2013-10-29 04:39:00,61.3,60.4,30.15,West,279,0.0,0.0,97,0.00,,,0.00,0,Wunderground v.1.15,2013-10-29 09:39:00,
2013-10-29 04:50:00,61.2,60.3,30.15,West,279,0.0,0.0,97,0.00,,,0.00,0,Wunderground v.1.15,2013-10-29 09:50:00,
2013-10-29 04:55:00,61.2,60.3,30.15,West,279,0.0,0.0,97,0.00,,,0.00,0,Wunderground v.1.15,2013-10-29 09:55:00,
2013-10-29 05:01:00,61.1,60.2,30.15,West,279,0.0,0.0,97,0.00,,,0.00,0,Wunderground v.1.15,2013-10-29 10:01:00,
2013-10-29 05:21:00,61.3,60.7,30.15,West,279,0.0,0.0,98,0.00,,,0.00,0,Wunderground v.1.15,2013-10-29 10:21:00,
2013-10-29 05:31:00,61.4,60.8,30.16,West,279,0.0,0.0,98,0.00,,,0.00,0,Wunderground v.1.15,2013-10-29 10:31:00,
2013-10-29 05:36:00,61.4,60.8,30.16,West,279,0.0,0.0,98,0.00,,,0.00,0,Wunderground v.1.15,2013-10-29 10:36:00,
2013-10-29 05:41:00,61.4,60.8,30.16,West,279,0.0,0.0,98,0.00,,,0.00,0,Wunderground v.1.15,2013-10-29 10:41:00,
2013-10-29 05:52:00,61.3,60.7,30.16,West,279,0.0,0.0,98,0.00,,,0.00,0,Wunderground v.1.15,2013-10-29 10:52:00,
2013-10-29 05:57:00,61.2,60.6,30.17,West,279,0.0,0.0,98,0.00,,,0.00,0,Wunderground v.1.15,2013-10-29 10:57:00,
2013-10-29 06:02:00,61.1,60.5,30.17,West,279,0.0,0.0,98,0.00,,,0.00,0,Wunderground v.1.15,2013-10-29 11:02:00,
2013-10-29 06:12:00,61.0,60.4,30.17,West,279,0.0,0.0,98,0.00,,,0.00,0,Wunderground v.1.15,2013-10-29 11:12:00,
2013-10-29 06:17:00,60.8,60.2,30.17,West,279,0.0,0.0,98,0.00,,,0.00,0,Wunderground v.1.15,2013-10-29 11:17:00,
2013-10-29 06:23:00,60.8,60.2,30.17,West,279,0.0,0.0,98,0.00,,,0.00,0,Wunderground v.1.15,2013-10-29 11:23:00,
2013-10-29 06:43:00,60.8,60.2,30.17,West,279,0.0,0.0,98,0.00,,,0.00,0,Wunderground v.1.15,2013-10-29 11:43:00,
2013-10-29 06:53:00,60.8,60.2,30.17,West,279,0.0,0.0,98,0.00,,,0.00,0,Wunderground v.1.15,2013-10-29 11:53:00,
2013-10-29 06:58:00,60.8,60.2,30.17,West,279,0.0,0.0,98,0.00,,,0.00,0,Wunderground v.1.15,2013-10-29 11:58:00,
2013-10-29 07:03:00,60.8,60.2,30.17,West,279,0.0,0.0,98,0.00,,,0.00,0,Wunderground v.1.15,2013-10-29 12:03:00,
2013-10-29 07:09:00,60.6,60.0,30.17,West,279,0.0,0.0,98,0.00,,,0.00,0,Wunderground v.1.15,2013-10-29 12:09:00,
2013-10-29 07:14:00,60.5,59.9,30.17,West,279,0.0,0.0,98,0.00,,,0.00,0,Wunderground v.1.15,2013-10-29 12:14:00,
2013-10-29 07:34:00,60.4,59.8,30.17,West,279,0.0,0.0,98,0.00,,,0.00,19,Wunderground v.1.15,2013-10-29 12:34:00,
2013-10-29 07:45:00,60.4,59.8,30.18,West,279,0.0,0.0,98,0.00,,,0.00,33,Wunderground v.1.15,2013-10-29 12:45:00,
2013-10-29 07:50:00,60.4,59.8,30.18,West,279,0.0,0.0,98,0.00,,,0.00,42,Wunderground v.1.15,2013-10-29 12:50:00,
2013-10-29 07:55:00,60.5,59.9,30.18,West,279,0.0,0.0,98,0.00,,,0.00,53,Wunderground v.1.15,2013-10-29 12:55:00,
2013-10-29 08:01:00,60.7,60.1,30.18,West,279,0.0,0.0,98,0.00,,,0.00,63,Wunderground v.1.15,2013-10-29 13:01:00,
2013-10-29 08:06:00,60.8,60.2,30.18,West,279,0.0,0.0,98,0.00,,,0.00,72,Wunderground v.1.15,2013-10-29 13:06:00,
2013-10-29 08:11:00,60.9,60.3,30.18,West,279,0.0,0.0,98,0.00,,,0.00,79,Wunderground v.1.15,2013-10-29 13:11:00,
2013-10-29 08:17:00,61.0,60.4,30.18,West,279,0.0,0.0,98,0.00,,,0.00,83,Wunderground v.1.15,2013-10-29 13:17:00,
2013-10-29 08:22:00,61.1,60.5,30.19,West,279,0.0,0.0,98,0.00,,,0.00,86,Wunderground v.1.15,2013-10-29 13:22:00,
2013-10-29 08:27:00,61.2,60.6,30.19,West,279,0.0,0.0,98,0.00,,,0.00,97,Wunderground v.1.15,2013-10-29 13:27:00,
2013-10-29 08:32:00,61.2,60.6,30.19,West,279,0.0,0.0,98,0.00,,,0.00,104,Wunderground v.1.15,2013-10-29 13:32:00,
2013-10-29 08:38:00,61.4,60.8,30.19,West,279,0.0,0.0,98,0.00,,,0.00,123,Wunderground v.1.15,2013-10-29 13:38:00,
2013-10-29 08:43:00,61.7,61.1,30.19,West,279,0.0,0.0,98,0.00,,,0.00,128,Wunderground v.1.15,2013-10-29 13:43:00,
2013-10-29 08:48:00,61.9,61.3,30.20,West,279,0.0,0.0,98,0.00,,,0.00,142,Wunderground v.1.15,2013-10-29 13:48:00,
2013-10-29 08:53:00,62.1,61.5,30.20,West,279,0.0,0.0,98,0.00,,,0.00,163,Wunderground v.1.15,2013-10-29 13:53:00,
2013-10-29 08:59:00,62.4,61.8,30.20,West,279,0.0,0.0,98,0.00,,,0.00,237,Wunderground v.1.15,2013-10-29 13:59:00,
2013-10-29 09:08:00,63.0,62.7,30.20,West,279,0.0,0.0,99,0.00,,,0.00,186,Wunderground v.1.15,2013-10-29 14:08:00,
2013-10-29 09:13:00,63.3,62.7,30.20,West,279,0.0,0.0,98,0.00,,,0.00,200,Wunderground v.1.15,2013-10-29 14:13:00,
2013-10-29 09:19:00,63.7,63.1,30.20,WNW,283,0.0,0.0,98,0.00,,,0.00,209,Wunderground v.1.15,2013-10-29 14:19:00,
2013-10-29 09:29:00,64.6,64.0,30.20,WNW,282,0.0,0.0,98,0.00,,,0.00,297,Wunderground v.1.15,2013-10-29 14:29:00,
2013-10-29 09:34:00,65.0,64.1,30.20,SSE,148,0.0,0.0,97,0.00,,,0.00,304,Wunderground v.1.15,2013-10-29 14:34:00,
2013-10-29 09:39:00,65.6,64.4,30.20,ESE,111,1.0,7.0,96,0.00,,,0.00,329,Wunderground v.1.15,2013-10-29 14:39:00,
2013-10-29 10:10:00,69.3,65.6,30.20,SE,143,1.0,1.0,88,0.00,,,0.00,390,Wunderground v.1.15,2013-10-29 15:10:00,
2013-10-29 10:15:00,69.8,65.8,30.20,SE,135,1.0,3.0,87,0.00,,,0.00,380,Wunderground v.1.15,2013-10-29 15:15:00,
2013-10-29 10:21:00,70.2,65.8,30.20,ESE,121,1.0,2.0,86,0.00,,,0.00,410,Wunderground v.1.15,2013-10-29 15:21:00,
2013-10-29 10:33:00,71.1,66.0,30.20,SE,133,1.0,5.0,84,0.00,,,0.00,369,Wunderground v.1.15,2013-10-29 15:33:00,
2013-10-29 10:42:00,71.8,66.7,30.20,South,190,0.0,0.0,84,0.00,,,0.00,438,Wunderground v.1.15,2013-10-29 15:42:00,
2013-10-29 10:52:00,72.2,66.0,30.20,ESE,121,1.0,9.0,81,0.00,,,0.00,443,Wunderground v.1.15,2013-10-29 15:52:00,
2013-10-29 10:57:00,72.3,66.1,30.20,SE,132,1.0,9.0,81,0.00,,,0.00,301,Wunderground v.1.15,2013-10-29 15:57:00,
2013-10-29 11:02:00,72.5,66.3,30.19,SE,142,1.0,3.0,81,0.00,,,0.00,410,Wunderground v.1.15,2013-10-29 16:02:00,
2013-10-29 11:07:00,72.7,66.5,30.19,NW,304,0.0,3.0,81,0.00,,,0.00,246,Wunderground v.1.15,2013-10-29 16:07:00,
2013-10-29 11:13:00,72.9,66.7,30.19,East,80,1.0,10.0,81,0.00,,,0.00,163,Wunderground v.1.15,2013-10-29 16:13:00,
2013-10-29 11:18:00,73.2,66.7,30.19,SSW,205,1.0,10.0,80,0.00,,,0.00,352,Wunderground v.1.15,2013-10-29 16:18:00,
2013-10-29 11:26:00,73.8,67.2,30.19,SSW,195,0.0,1.0,80,0.00,,,0.00,522,Wunderground v.1.15,2013-10-29 16:26:00,
2013-10-29 11:32:00,73.8,65.8,30.19,SE,133,1.0,9.0,76,0.00,,,0.00,571,Wunderground v.1.15,2013-10-29 16:32:00,
2013-10-29 11:38:00,74.0,66.0,30.19,SE,133,2.0,9.0,76,0.00,,,0.00,568,Wunderground v.1.15,2013-10-29 16:38:00,
2013-10-29 11:43:00,74.1,66.0,30.19,SSW,194,1.0,4.0,76,0.00,,,0.00,599,Wunderground v.1.15,2013-10-29 16:43:00,
2013-10-29 11:48:00,74.3,65.9,30.19,ESE,108,1.0,4.0,75,0.00,,,0.00,652,Wunderground v.1.15,2013-10-29 16:48:00,
2013-10-29 11:53:00,74.5,65.7,30.18,SW,219,1.0,3.0,74,0.00,,,0.00,520,Wunderground v.1.15,2013-10-29 16:53:00,
2013-10-29 11:58:00,74.8,65.6,30.18,SSW,193,1.0,3.0,73,0.00,,,0.00,520,Wunderground v.1.15,2013-10-29 16:58:00,
2013-10-29 12:03:00,74.8,66.0,30.18,ESE,117,1.0,5.0,74,0.00,,,0.00,227,Wunderground v.1.15,2013-10-29 17:03:00,
2013-10-29 12:08:00,74.9,66.1,30.18,ENE,77,1.0,5.0,74,0.00,,,0.00,388,Wunderground v.1.15,2013-10-29 17:08:00,
2013-10-29 12:13:00,75.0,65.0,30.18,East,98,1.0,8.0,71,0.00,,,0.00,601,Wunderground v.1.15,2013-10-29 17:13:00,
2013-10-29 12:18:00,74.9,65.3,30.18,SE,136,1.0,8.0,72,0.00,,,0.00,638,Wunderground v.1.15,2013-10-29 17:18:00,
2013-10-29 12:23:00,74.8,65.2,30.18,SE,144,2.0,4.0,72,0.00,,,0.00,545,Wunderground v.1.15,2013-10-29 17:23:00,
2013-10-29 12:31:00,75.0,65.4,30.18,SSE,161,1.0,2.0,72,0.00,,,0.00,512,Wunderground v.1.15,2013-10-29 17:31:00,
2013-10-29 12:36:00,75.1,65.5,30.17,SSE,165,0.0,2.0,72,0.00,,,0.00,464,Wunderground v.1.15,2013-10-29 17:36:00,
2013-10-29 12:42:00,75.3,65.6,30.17,SSE,161,1.0,4.0,72,0.00,,,0.00,510,Wunderground v.1.15,2013-10-29 17:42:00,
2013-10-29 12:47:00,75.6,64.3,30.17,SSE,163,1.0,4.0,68,0.00,,,0.00,673,Wunderground v.1.15,2013-10-29 17:47:00,
2013-10-29 12:52:00,75.6,64.7,30.17,SE,128,1.0,1.0,69,0.00,,,0.00,598,Wunderground v.1.15,2013-10-29 17:52:00,
2013-10-29 12:58:00,75.8,65.3,30.16,SE,134,1.0,3.0,70,0.00,,,0.00,550,Wunderground v.1.15,2013-10-29 17:58:00,
2013-10-29 13:04:00,76.0,65.1,30.16,SE,136,0.0,1.0,69,0.00,,,0.00,501,Wunderground v.1.15,2013-10-29 18:04:00,
2013-10-29 13:09:00,75.9,64.6,30.16,ESE,106,1.0,5.0,68,0.00,,,0.00,501,Wunderground v.1.15,2013-10-29 18:09:00,
2013-10-29 13:14:00,75.8,64.1,30.15,SSE,160,2.0,7.0,67,0.00,,,0.00,459,Wunderground v.1.15,2013-10-29 18:14:00,
2013-10-29 13:20:00,75.9,65.0,30.15,South,181,1.0,1.0,69,0.00,,,0.00,517,Wunderground v.1.15,2013-10-29 18:20:00,
2013-10-29 13:33:00,76.0,64.2,30.15,ESE,119,1.0,3.0,67,0.00,,,0.00,585,Wunderground v.1.15,2013-10-29 18:33:00,
2013-10-29 13:39:00,76.3,65.0,30.15,ESE,119,1.0,6.0,68,0.00,,,0.00,638,Wunderground v.1.15,2013-10-29 18:39:00,
2013-10-29 13:52:00,76.4,64.6,30.14,South,169,1.0,2.0,67,0.00,,,0.00,466,Wunderground v.1.15,2013-10-29 18:52:00,
2013-10-29 13:58:00,76.6,64.8,30.14,SSW,203,1.0,2.0,67,0.00,,,0.00,450,Wunderground v.1.15,2013-10-29 18:58:00,
2013-10-29 14:03:00,76.7,65.3,30.14,SSE,168,0.0,3.0,68,0.00,,,0.00,415,Wunderground v.1.15,2013-10-29 19:03:00,
2013-10-29 14:08:00,76.4,64.2,30.14,SE,130,1.0,3.0,66,0.00,,,0.00,441,Wunderground v.1.15,2013-10-29 19:08:00,
2013-10-29 14:13:00,76.3,64.1,30.14,SSE,163,1.0,8.0,66,0.00,,,0.00,441,Wunderground v.1.15,2013-10-29 19:13:00,
2013-10-29 14:18:00,76.4,64.6,30.13,ESE,113,1.0,8.0,67,0.00,,,0.00,401,Wunderground v.1.15,2013-10-29 19:18:00,
2013-10-29 14:23:00,76.5,64.3,30.13,SSE,150,1.0,6.0,66,0.00,,,0.00,371,Wunderground v.1.15,2013-10-29 19:23:00,
2013-10-29 14:33:00,76.6,64.8,30.13,SSE,152,1.0,8.0,67,0.00,,,0.00,487,Wunderground v.1.15,2013-10-29 19:33:00,
2013-10-29 14:39:00,76.8,64.1,30.13,East,101,1.0,8.0,65,0.00,,,0.00,448,Wunderground v.1.15,2013-10-29 19:39:00,
2013-10-29 14:54:00,76.9,64.7,30.12,SSE,150,0.0,1.0,66,0.00,,,0.00,487,Wunderground v.1.15,2013-10-29 19:54:00,
2013-10-29 14:59:00,77.2,64.1,30.12,SSW,198,0.0,1.0,64,0.00,,,0.00,496,Wunderground v.1.15,2013-10-29 19:59:00,
2013-10-29 15:04:00,77.4,64.3,30.13,South,170,0.0,0.0,64,0.00,,,0.00,538,Wunderground v.1.15,2013-10-29 20:04:00,
2013-10-29 15:09:00,77.2,63.6,30.12,SSW,196,1.0,1.0,63,0.00,,,0.00,508,Wunderground v.1.15,2013-10-29 20:09:00,
2013-10-29 15:14:00,77.3,63.3,30.13,South,171,0.0,1.0,62,0.00,,,0.00,450,Wunderground v.1.15,2013-10-29 20:14:00,
2013-10-29 15:19:00,77.1,64.0,30.12,ESE,123,1.0,1.0,64,0.00,,,0.00,418,Wunderground v.1.15,2013-10-29 20:19:00,
2013-10-29 15:33:00,76.7,64.0,30.12,SSW,192,1.0,3.0,65,0.00,,,0.00,230,Wunderground v.1.15,2013-10-29 20:33:00,
2013-10-29 15:38:00,76.6,64.8,30.13,SE,143,0.0,3.0,67,0.00,,,0.00,330,Wunderground v.1.15,2013-10-29 20:38:00,
2013-10-29 15:43:00,76.6,64.8,30.12,SSE,165,0.0,0.0,67,0.00,,,0.00,329,Wunderground v.1.15,2013-10-29 20:43:00,
2013-10-29 15:51:00,76.8,64.1,30.12,South,183,0.0,4.0,65,0.00,,,0.00,306,Wunderground v.1.15,2013-10-29 20:51:00,
2013-10-29 15:56:00,76.9,65.5,30.12,South,182,0.0,4.0,68,0.00,,,0.00,299,Wunderground v.1.15,2013-10-29 20:56:00,
2013-10-29 16:02:00,77.0,65.2,30.12,South,176,0.0,0.0,67,0.00,,,0.00,306,Wunderground v.1.15,2013-10-29 21:02:00,
2013-10-29 16:19:00,77.0,64.8,30.12,SSE,166,0.0,4.0,66,0.00,,,0.00,176,Wunderground v.1.15,2013-10-29 21:19:00,
2013-10-29 16:33:00,76.6,65.2,30.12,SSE,156,0.0,0.0,68,0.00,,,0.00,155,Wunderground v.1.15,2013-10-29 21:33:00,
2013-10-29 16:39:00,76.2,64.9,30.12,SSE,150,0.0,0.0,68,0.00,,,0.00,142,Wunderground v.1.15,2013-10-29 21:39:00,
2013-10-29 16:44:00,76.0,65.1,30.12,SSE,150,0.0,0.0,69,0.00,,,0.00,113,Wunderground v.1.15,2013-10-29 21:44:00,
2013-10-29 16:49:00,75.8,65.7,30.12,South,178,0.0,0.0,71,0.00,,,0.00,135,Wunderground v.1.15,2013-10-29 21:49:00,
2013-10-29 16:54:00,75.6,65.1,30.12,SE,146,0.0,0.0,70,0.00,,,0.00,155,Wunderground v.1.15,2013-10-29 21:54:00,
2013-10-29 16:59:00,75.5,65.4,30.12,SE,145,0.0,0.0,71,0.00,,,0.00,163,Wunderground v.1.15,2013-10-29 21:59:00,
2013-10-29 17:05:00,75.5,65.4,30.12,SSE,165,0.0,0.0,71,0.00,,,0.00,190,Wunderground v.1.15,2013-10-29 22:05:00,
2013-10-29 17:10:00,75.5,65.4,30.12,SSE,165,0.0,0.0,71,0.00,,,0.00,156,Wunderground v.1.15,2013-10-29 22:10:00,
2013-10-29 17:15:00,75.5,65.8,30.11,SE,127,0.0,3.0,72,0.00,,,0.00,128,Wunderground v.1.15,2013-10-29 22:15:00,
2013-10-29 17:20:00,75.5,65.4,30.12,SE,125,0.0,0.0,71,0.00,,,0.00,90,Wunderground v.1.15,2013-10-29 22:20:00,
2013-10-29 17:33:00,75.1,65.1,30.12,SE,142,0.0,0.0,71,0.00,,,0.00,58,Wunderground v.1.15,2013-10-29 22:33:00,
2013-10-29 17:38:00,75.0,65.4,30.12,SE,142,0.0,0.0,72,0.00,,,0.00,47,Wunderground v.1.15,2013-10-29 22:38:00,
2013-10-29 17:43:00,74.8,65.2,30.12,SE,142,0.0,0.0,72,0.00,,,0.00,42,Wunderground v.1.15,2013-10-29 22:43:00,
2013-10-29 17:54:00,74.0,64.8,30.12,SE,142,0.0,1.0,73,0.00,,,0.00,26,Wunderground v.1.15,2013-10-29 22:54:00,
2013-10-29 17:59:00,73.7,64.9,30.12,SE,142,0.0,1.0,74,0.00,,,0.00,18,Wunderground v.1.15,2013-10-29 22:59:00,
2013-10-29 18:12:00,73.1,64.7,30.13,SE,141,0.0,0.0,75,0.00,,,0.00,5,Wunderground v.1.15,2013-10-29 23:12:00,
2013-10-29 18:23:00,72.4,64.4,30.13,SE,141,0.0,0.0,76,0.00,,,0.00,0,Wunderground v.1.15,2013-10-29 23:23:00,
2013-10-29 18:33:00,71.6,64.0,30.13,SE,141,0.0,0.0,77,0.00,,,0.00,0,Wunderground v.1.15,2013-10-29 23:33:00,
2013-10-29 18:44:00,71.0,64.2,30.13,SE,141,0.0,0.0,79,0.00,,,0.00,0,Wunderground v.1.15,2013-10-29 23:44:00,
2013-10-29 18:49:00,70.8,64.0,30.13,SE,141,0.0,0.0,79,0.00,,,0.00,0,Wunderground v.1.15,2013-10-29 23:49:00,
2013-10-29 18:55:00,70.5,65.1,30.13,SE,141,0.0,0.0,83,0.00,,,0.00,0,Wunderground v.1.15,2013-10-29 23:55:00,
2013-10-29 19:06:00,69.9,63.8,30.14,SE,141,0.0,0.0,81,0.00,,,0.00,0,Wunderground v.1.15,2013-10-30 00:06:00,
2013-10-29 19:11:00,69.7,64.0,30.14,SE,141,0.0,0.0,82,0.00,,,0.00,0,Wunderground v.1.15,2013-10-30 00:11:00,
2013-10-29 19:16:00,69.4,63.3,30.14,SE,141,0.0,0.0,81,0.00,,,0.00,0,Wunderground v.1.15,2013-10-30 00:16:00,
2013-10-29 19:22:00,69.3,63.2,30.14,SE,141,0.0,0.0,81,0.00,,,0.00,0,Wunderground v.1.15,2013-10-30 00:22:00,
2013-10-29 19:43:00,68.6,62.9,30.15,SE,141,0.0,0.0,82,0.00,,,0.00,0,Wunderground v.1.15,2013-10-30 00:43:00,
2013-10-29 20:01:00,67.8,62.4,30.15,SE,141,0.0,0.0,83,0.00,,,0.00,0,Wunderground v.1.15,2013-10-30 01:01:00,
2013-10-29 20:27:00,67.0,61.7,30.15,SE,128,0.0,3.0,83,0.00,,,0.00,0,Wunderground v.1.15,2013-10-30 01:27:00,
2013-10-29 20:32:00,66.9,61.6,30.15,SE,130,0.0,0.0,83,0.00,,,0.00,0,Wunderground v.1.15,2013-10-30 01:32:00,
2013-10-29 20:37:00,66.8,61.8,30.15,SE,134,0.0,0.0,84,0.00,,,0.00,0,Wunderground v.1.15,2013-10-30 01:37:00,
2013-10-29 20:43:00,66.8,61.8,30.15,SE,135,0.0,0.0,84,0.00,,,0.00,0,Wunderground v.1.15,2013-10-30 01:43:00,
2013-10-29 20:49:00,66.8,61.8,30.15,SE,135,0.0,0.0,84,0.00,,,0.00,0,Wunderground v.1.15,2013-10-30 01:49:00,
2013-10-29 20:54:00,66.7,61.7,30.16,SE,135,0.0,0.0,84,0.00,,,0.00,0,Wunderground v.1.15,2013-10-30 01:54:00,
2013-10-29 21:00:00,66.6,61.6,30.16,SSE,158,0.0,0.0,84,0.00,,,0.00,0,Wunderground v.1.15,2013-10-30 02:00:00,
2013-10-29 21:05:00,66.6,61.6,30.17,SSE,158,0.0,0.0,84,0.00,,,0.00,0,Wunderground v.1.15,2013-10-30 02:05:00,
2013-10-29 21:11:00,66.5,61.8,30.17,SE,127,0.0,0.0,85,0.00,,,0.00,0,Wunderground v.1.15,2013-10-30 02:11:00,
2013-10-29 21:17:00,66.5,61.8,30.17,SE,129,0.0,0.0,85,0.00,,,0.00,0,Wunderground v.1.15,2013-10-30 02:17:00,
2013-10-29 21:22:00,66.5,62.2,30.17,SE,129,0.0,0.0,86,0.00,,,0.00,0,Wunderground v.1.15,2013-10-30 02:22:00,
2013-10-29 21:33:00,66.4,62.4,30.17,SE,129,0.0,0.0,87,0.00,,,0.00,0,Wunderground v.1.15,2013-10-30 02:33:00,
2013-10-29 21:38:00,66.3,62.3,30.16,SE,129,0.0,0.0,87,0.00,,,0.00,0,Wunderground v.1.15,2013-10-30 02:38:00,
2013-10-29 21:44:00,66.1,62.4,30.17,SE,129,0.0,0.0,88,0.00,,,0.00,0,Wunderground v.1.15,2013-10-30 02:44:00,
2013-10-29 21:49:00,66.0,62.7,30.17,SE,129,0.0,0.0,89,0.00,,,0.00,0,Wunderground v.1.15,2013-10-30 02:49:00,
2013-10-29 21:54:00,65.9,62.6,30.17,SE,129,0.0,0.0,89,0.00,,,0.00,0,Wunderground v.1.15,2013-10-30 02:54:00,
2013-10-29 22:00:00,65.9,62.9,30.17,SE,129,0.0,0.0,90,0.00,,,0.00,0,Wunderground v.1.15,2013-10-30 03:00:00,
2013-10-29 22:05:00,65.8,62.8,30.17,SE,129,0.0,0.0,90,0.00,,,0.00,0,Wunderground v.1.15,2013-10-30 03:05:00,
2013-10-29 22:10:00,65.8,62.8,30.17,SE,129,0.0,0.0,90,0.00,,,0.00,0,Wunderground v.1.15,2013-10-30 03:10:00,
2013-10-29 22:15:00,65.8,62.8,30.17,SE,129,0.0,0.0,90,0.00,,,0.00,0,Wunderground v.1.15,2013-10-30 03:15:00,
2013-10-29 22:20:00,65.8,63.1,30.17,SE,129,0.0,0.0,91,0.00,,,0.00,0,Wunderground v.1.15,2013-10-30 03:20:00,
2013-10-29 22:37:00,65.6,63.2,30.17,SE,136,0.0,0.0,92,0.00,,,0.00,0,Wunderground v.1.15,2013-10-30 03:37:00,
2013-10-29 22:42:00,65.6,63.2,30.17,SE,136,0.0,0.0,92,0.00,,,0.00,0,Wunderground v.1.15,2013-10-30 03:42:00,
2013-10-29 22:47:00,65.5,63.1,30.17,SE,135,0.0,0.0,92,0.00,,,0.00,0,Wunderground v.1.15,2013-10-30 03:47:00,
2013-10-29 22:52:00,65.4,63.3,30.17,ESE,102,0.0,0.0,93,0.00,,,0.00,0,Wunderground v.1.15,2013-10-30 03:52:00,
2013-10-29 22:58:00,65.4,63.3,30.17,ESE,102,0.0,0.0,93,0.00,,,0.00,0,Wunderground v.1.15,2013-10-30 03:58:00,
2013-10-29 23:01:00,65.3,63.2,30.17,ESE,102,0.0,0.0,93,0.00,,,0.00,0,Wunderground v.1.15,2013-10-30 04:01:00,
2013-10-29 23:02:00,65.3,63.2,30.17,ESE,102,0.0,0.0,93,0.00,,,0.00,0,Wunderground v.1.15,2013-10-30 04:02:00,
2013-10-29 23:07:00,65.2,63.1,30.18,ESE,102,0.0,0.0,93,0.00,,,0.00,0,Wunderground v.1.15,2013-10-30 04:07:00,
2013-10-29 23:10:00,65.1,63.0,30.17,ESE,102,0.0,0.0,93,0.00,,,0.00,0,Wunderground v.1.15,2013-10-30 04:10:00,
2013-10-29 23:12:00,65.1,63.0,30.17,ESE,102,0.0,0.0,93,0.00,,,0.00,0,Wunderground v.1.15,2013-10-30 04:12:00,
2013-10-29 23:15:00,65.0,62.9,30.17,ESE,102,0.0,0.0,93,0.00,,,0.00,0,Wunderground v.1.15,2013-10-30 04:15:00,
2013-10-29 23:20:00,65.0,63.2,30.17,ESE,102,0.0,0.0,94,0.00,,,0.00,0,Wunderground v.1.15,2013-10-30 04:20:00,
2013-10-29 23:25:00,65.0,63.2,30.17,ESE,102,0.0,0.0,94,0.00,,,0.00,0,Wunderground v.1.15,2013-10-30 04:25:00,
2013-10-29 23:30:00,64.9,63.1,30.17,ESE,102,0.0,0.0,94,0.00,,,0.00,0,Wunderground v.1.15,2013-10-30 04:30:00,
2013-10-29 23:35:00,64.8,63.0,30.17,ESE,102,0.0,0.0,94,0.00,,,0.00,0,Wunderground v.1.15,2013-10-30 04:35:00,
2013-10-29 23:40:00,64.7,62.9,30.17,ESE,102,0.0,0.0,94,0.00,,,0.00,0,Wunderground v.1.15,2013-10-30 04:40:00,
2013-10-29 23:45:00,64.5,62.7,30.17,ESE,102,0.0,0.0,94,0.00,,,0.00,0,Wunderground v.1.15,2013-10-30 04:45:00,
2013-10-29 23:51:00,64.4,62.6,30.17,ESE,102,0.0,0.0,94,0.00,,,0.00,0,Wunderground v.1.15,2013-10-30 04:51:00,
2013-10-29 23:57:00,64.3,62.8,30.17,ESE,102,0.0,0.0,95,0.00,,,0.00,0,Wunderground v.1.15,2013-10-30 04:57:00,